Decoded Metar for RPLB (OLONGAPO/SUBIC in PHILIPPINES) (IATA:N/A) | Meteo·Mobile Aviation Weather
aviador You're here:

RPLB Decoded Metar

OLONGAPO/SUBIC in PHILIPPINES
Report Time2018-11-19 02:00:00
UTC Time2018-11-19 02:37:58
Flight Rules vfr VFR
Wind070° at 10 kt
W.Decomp.*RWY 07: 10.0 kt HW 0.2 kt RCW
W.Rank070° ranks 1
Current wind is above 070° avg. (6.9)
Visibility9999 m
Phenomena:N/A
Clouds:Few 020 Hf
Scattered 080 Hf
Broken 300 Hf
Expected CloudBase > 3,200 ft AGL from Temp-Dew spread
Ceiling30,000 ft
Temp29°C (ISA +14)
Dew Point21°C (62% RH)
Heat Index31.3°C
QNH1015 hPa
Density Alt1,936 ft
Elevation56 ft
Report Wrong Elevation
Raw Report
METAR RPLB 190200Z 07010KT 9999 FEW020 SCT080 BKN300 29/21 Q1015
NOSIG RMK A2997=

Extra information for RPLB:More info

Metar Taf Metar & Taf Last 4 Metars F.Rules Stats Wind Profile Meteogram Temp Stats Airport Information Weather charts Add Link Nearby VenuesMetar ALERT Operation Metar Decoded Social comments